This is the latest recevied weather packets stored in our database for station/object K6CEG. If no packets are shown the sender has not sent any weather packets the latest 10 day(s).
| Time | Temp. | Humidity | Pressure | Rain* | Wind** | Luminosity | Snow |
|---|---|---|---|---|---|---|---|
| 1788302299 | 29.44° C | 29% | 1016 hPa | 0 mm | - | 36 W/m² | - |
| 1788301994 | 30° C | 28% | 1015.9 hPa | 0 mm | - | 356 W/m² | - |
| 1788301689 | 30° C | 28% | 1015.9 hPa | 0 mm | - | 37 W/m² | - |
| 1788301386 | 30° C | 30% | 1016 hPa | 0 mm | - | 37 W/m² | - |
| 1788301081 | 30° C | 25% | 1015.7 hPa | 0 mm | - | 37 W/m² | - |
| 1788300776 | 30° C | 29% | 1016 hPa | 0 mm | - | 38 W/m² | - |
| 1788300476 | 30.56° C | 30% | 1016 hPa | 0 mm | - | 38 W/m² | - |
| 1788300176 | 30.56° C | 26% | 1015.8 hPa | 0 mm | - | 39 W/m² | - |
| 1788299874 | 31.11° C | 24% | 1016.1 hPa | 0 mm | - | 42 W/m² | - |
| 1788299574 | 30.56° C | 27% | 1016.3 hPa | 0 mm | - | 263 W/m² | - |
| 1788299273 | 30.56° C | 29% | 1016.2 hPa | 0 mm | - | 41 W/m² | - |
| 1788298971 | 31.11° C | 27% | 1016.2 hPa | 0 mm | - | 46 W/m² | - |
| 1788298667 | 31.11° C | 29% | 1016.1 hPa | 0 mm | - | 546 W/m² | - |
| 1788298366 | 31.11° C | 29% | 1016.2 hPa | 0 mm | - | 643 W/m² | - |
| 1788298061 | 31.11° C | 29% | 1016.2 hPa | 0 mm | - | 672 W/m² | - |
| 1788297757 | 30.56° C | 30% | 1016.2 hPa | 0 mm | - | 501 W/m² | - |
| 1788297457 | 30.56° C | 34% | 1016.4 hPa | 0 mm | - | 471 W/m² | - |
| 1788297153 | 30.56° C | 35% | 1016.4 hPa | 0 mm | - | 542 W/m² | - |
| 1788296849 | 30.56° C | 36% | 1016.4 hPa | 0 mm | - | 508 W/m² | - |
| 1788296545 | 30.56° C | 37% | 1016.5 hPa | 0 mm | - | 672 W/m² | - |
| 1788296241 | 31.11° C | 35% | 1016.3 hPa | 0 mm | - | 572 W/m² | - |
| 1788295940 | 30.56° C | 36% | 1016.4 hPa | 0 mm | - | 262 W/m² | - |
| 1788295642 | 30.56° C | 37% | 1016.5 hPa | 0 mm | - | 452 W/m² | - |
| 1788295332 | 31.11° C | 38% | 1016.5 hPa | 0 mm | - | 670 W/m² | - |
| 1788295027 | 30.56° C | 36% | 1016.7 hPa | 0 mm | - | 696 W/m² | - |
* Rain latest hour (hover to see other rain measurements)
** Current wind speed in m/s (hover to see current wind gust speed)